sensor_id;sensor_type;location;lat;lon;timestamp;P1;durP1;ratioP1;P2;durP2;ratioP2
26484;SDS011;18083;50.560;7.262;2023-02-28T00:00:37;4.47;;;2.47;;
26484;SDS011;18083;50.560;7.262;2023-02-28T00:03:05;3.03;;;2.30;;
26484;SDS011;18083;50.560;7.262;2023-02-28T00:05:32;6.17;;;2.90;;
26484;SDS011;18083;50.560;7.262;2023-02-28T00:07:59;4.27;;;3.17;;
26484;SDS011;18083;50.560;7.262;2023-02-28T00:10:28;3.67;;;3.00;;
26484;SDS011;18083;50.560;7.262;2023-02-28T00:12:59;7.20;;;2.60;;
26484;SDS011;18083;50.560;7.262;2023-02-28T00:15:25;4.07;;;2.50;;
26484;SDS011;18083;50.560;7.262;2023-02-28T00:17:52;5.20;;;2.60;;
26484;SDS011;18083;50.560;7.262;2023-02-28T00:20:20;4.70;;;2.30;;
26484;SDS011;18083;50.560;7.262;2023-02-28T00:22:49;5.00;;;2.30;;
26484;SDS011;18083;50.560;7.262;2023-02-28T00:25:17;4.13;;;2.33;;
26484;SDS011;18083;50.560;7.262;2023-02-28T00:27:45;5.30;;;2.53;;
26484;SDS011;18083;50.560;7.262;2023-02-28T00:30:14;4.07;;;2.03;;
26484;SDS011;18083;50.560;7.262;2023-02-28T00:32:41;4.53;;;2.07;;
26484;SDS011;18083;50.560;7.262;2023-02-28T00:35:09;3.77;;;2.93;;
26484;SDS011;18083;50.560;7.262;2023-02-28T00:37:37;6.27;;;2.70;;
26484;SDS011;18083;50.560;7.262;2023-02-28T00:40:04;5.53;;;2.07;;
26484;SDS011;18083;50.560;7.262;2023-02-28T00:42:33;5.97;;;2.57;;
26484;SDS011;18083;50.560;7.262;2023-02-28T00:45:00;8.10;;;3.57;;
26484;SDS011;18083;50.560;7.262;2023-02-28T00:47:29;6.33;;;2.17;;
26484;SDS011;18083;50.560;7.262;2023-02-28T00:49:57;3.43;;;2.10;;
26484;SDS011;18083;50.560;7.262;2023-02-28T00:52:24;6.77;;;2.30;;
26484;SDS011;18083;50.560;7.262;2023-02-28T00:54:51;3.63;;;2.40;;
26484;SDS011;18083;50.560;7.262;2023-02-28T00:57:19;6.17;;;2.73;;
26484;SDS011;18083;50.560;7.262;2023-02-28T00:59:46;3.20;;;2.33;;
26484;SDS011;18083;50.560;7.262;2023-02-28T01:02:13;7.53;;;2.77;;
26484;SDS011;18083;50.560;7.262;2023-02-28T01:04:41;4.37;;;2.63;;
26484;SDS011;18083;50.560;7.262;2023-02-28T01:07:08;9.47;;;2.90;;
26484;SDS011;18083;50.560;7.262;2023-02-28T01:09:35;3.30;;;2.43;;
26484;SDS011;18083;50.560;7.262;2023-02-28T01:12:03;6.63;;;2.50;;
26484;SDS011;18083;50.560;7.262;2023-02-28T01:14:30;6.83;;;2.93;;
26484;SDS011;18083;50.560;7.262;2023-02-28T01:16:58;3.20;;;2.87;;
26484;SDS011;18083;50.560;7.262;2023-02-28T01:19:25;4.73;;;2.70;;
26484;SDS011;18083;50.560;7.262;2023-02-28T01:21:52;4.30;;;2.70;;
26484;SDS011;18083;50.560;7.262;2023-02-28T01:24:19;2.60;;;2.40;;
26484;SDS011;18083;50.560;7.262;2023-02-28T01:26:47;4.10;;;2.10;;
26484;SDS011;18083;50.560;7.262;2023-02-28T01:29:14;5.23;;;3.03;;
26484;SDS011;18083;50.560;7.262;2023-02-28T01:31:42;4.27;;;2.43;;
26484;SDS011;18083;50.560;7.262;2023-02-28T01:34:09;4.37;;;2.40;;
26484;SDS011;18083;50.560;7.262;2023-02-28T01:36:36;3.70;;;3.03;;
26484;SDS011;18083;50.560;7.262;2023-02-28T01:39:03;4.83;;;2.23;;
26484;SDS011;18083;50.560;7.262;2023-02-28T01:41:32;2.47;;;2.27;;
26484;SDS011;18083;50.560;7.262;2023-02-28T01:44:04;2.47;;;2.20;;
26484;SDS011;18083;50.560;7.262;2023-02-28T01:46:32;4.13;;;2.37;;
26484;SDS011;18083;50.560;7.262;2023-02-28T01:51:40;2.50;;;1.90;;
26484;SDS011;18083;50.560;7.262;2023-02-28T01:54:03;2.60;;;2.40;;
26484;SDS011;18083;50.560;7.262;2023-02-28T01:56:33;3.27;;;2.37;;
26484;SDS011;18083;50.560;7.262;2023-02-28T01:59:00;5.13;;;2.70;;
26484;SDS011;18083;50.560;7.262;2023-02-28T02:01:28;4.80;;;2.83;;
26484;SDS011;18083;50.560;7.262;2023-02-28T02:03:57;5.53;;;3.27;;
26484;SDS011;18083;50.560;7.262;2023-02-28T02:06:25;4.47;;;2.50;;
26484;SDS011;18083;50.560;7.262;2023-02-28T02:08:53;2.90;;;2.17;;
26484;SDS011;18083;50.560;7.262;2023-02-28T02:11:22;4.13;;;2.60;;
26484;SDS011;18083;50.560;7.262;2023-02-28T02:16:50;4.00;;;2.63;;
26484;SDS011;18083;50.560;7.262;2023-02-28T02:19:42;4.17;;;2.90;;
26484;SDS011;18083;50.560;7.262;2023-02-28T02:24:33;4.30;;;2.43;;
26484;SDS011;18083;50.560;7.262;2023-02-28T02:30:05;3.70;;;2.50;;
26484;SDS011;18083;50.560;7.262;2023-02-28T02:34:40;6.13;;;2.63;;
26484;SDS011;18083;50.560;7.262;2023-02-28T02:37:13;5.20;;;2.77;;
26484;SDS011;18083;50.560;7.262;2023-02-28T02:39:43;5.10;;;2.83;;
26484;SDS011;18083;50.560;7.262;2023-02-28T02:42:13;2.87;;;1.97;;
26484;SDS011;18083;50.560;7.262;2023-02-28T02:44:42;5.20;;;2.20;;
26484;SDS011;18083;50.560;7.262;2023-02-28T02:47:11;3.80;;;2.40;;
26484;SDS011;18083;50.560;7.262;2023-02-28T02:49:39;4.03;;;2.17;;
26484;SDS011;18083;50.560;7.262;2023-02-28T02:52:09;4.30;;;2.37;;
26484;SDS011;18083;50.560;7.262;2023-02-28T02:54:38;3.77;;;2.60;;
26484;SDS011;18083;50.560;7.262;2023-02-28T02:57:07;6.57;;;2.87;;
26484;SDS011;18083;50.560;7.262;2023-02-28T02:59:35;4.60;;;2.40;;
26484;SDS011;18083;50.560;7.262;2023-02-28T03:02:04;6.03;;;2.50;;
26484;SDS011;18083;50.560;7.262;2023-02-28T03:04:34;4.33;;;2.57;;
26484;SDS011;18083;50.560;7.262;2023-02-28T03:07:02;4.23;;;2.27;;
26484;SDS011;18083;50.560;7.262;2023-02-28T03:09:32;5.33;;;1.70;;
26484;SDS011;18083;50.560;7.262;2023-02-28T03:11:58;4.13;;;2.83;;
26484;SDS011;18083;50.560;7.262;2023-02-28T03:14:43;5.67;;;2.87;;
26484;SDS011;18083;50.560;7.262;2023-02-28T03:19:43;3.17;;;2.20;;
26484;SDS011;18083;50.560;7.262;2023-02-28T03:22:23;3.07;;;2.07;;
26484;SDS011;18083;50.560;7.262;2023-02-28T03:27:20;4.60;;;2.60;;
26484;SDS011;18083;50.560;7.262;2023-02-28T03:29:46;2.50;;;2.30;;
26484;SDS011;18083;50.560;7.262;2023-02-28T03:32:17;4.33;;;2.20;;
26484;SDS011;18083;50.560;7.262;2023-02-28T03:34:46;5.47;;;2.57;;
26484;SDS011;18083;50.560;7.262;2023-02-28T03:37:16;6.30;;;2.43;;
26484;SDS011;18083;50.560;7.262;2023-02-28T03:39:44;5.10;;;2.43;;
26484;SDS011;18083;50.560;7.262;2023-02-28T03:42:13;3.77;;;2.60;;
26484;SDS011;18083;50.560;7.262;2023-02-28T03:44:41;5.07;;;2.90;;
26484;SDS011;18083;50.560;7.262;2023-02-28T03:47:11;7.00;;;2.63;;
26484;SDS011;18083;50.560;7.262;2023-02-28T03:49:45;4.47;;;3.03;;
26484;SDS011;18083;50.560;7.262;2023-02-28T03:52:09;3.33;;;2.47;;
26484;SDS011;18083;50.560;7.262;2023-02-28T03:54:42;5.10;;;2.97;;
26484;SDS011;18083;50.560;7.262;2023-02-28T03:57:07;3.13;;;2.70;;
26484;SDS011;18083;50.560;7.262;2023-02-28T03:59:36;5.73;;;3.67;;
26484;SDS011;18083;50.560;7.262;2023-02-28T04:02:03;3.53;;;2.53;;
26484;SDS011;18083;50.560;7.262;2023-02-28T04:04:30;5.00;;;2.93;;
26484;SDS011;18083;50.560;7.262;2023-02-28T04:07:02;3.70;;;2.77;;
26484;SDS011;18083;50.560;7.262;2023-02-28T04:09:30;3.60;;;3.27;;
26484;SDS011;18083;50.560;7.262;2023-02-28T04:11:57;3.87;;;2.87;;
26484;SDS011;18083;50.560;7.262;2023-02-28T04:14:25;2.97;;;2.67;;
26484;SDS011;18083;50.560;7.262;2023-02-28T04:16:52;4.00;;;2.90;;
26484;SDS011;18083;50.560;7.262;2023-02-28T04:19:20;5.73;;;2.80;;
26484;SDS011;18083;50.560;7.262;2023-02-28T04:21:48;3.73;;;2.77;;
26484;SDS011;18083;50.560;7.262;2023-02-28T04:24:16;3.93;;;2.73;;
26484;SDS011;18083;50.560;7.262;2023-02-28T04:26:48;5.10;;;2.33;;
26484;SDS011;18083;50.560;7.262;2023-02-28T04:29:27;4.37;;;2.70;;
26484;SDS011;18083;50.560;7.262;2023-02-28T04:31:50;4.47;;;3.00;;
26484;SDS011;18083;50.560;7.262;2023-02-28T04:34:19;4.60;;;3.10;;
26484;SDS011;18083;50.560;7.262;2023-02-28T04:36:47;10.90;;;3.33;;
26484;SDS011;18083;50.560;7.262;2023-02-28T04:39:20;7.20;;;3.73;;
26484;SDS011;18083;50.560;7.262;2023-02-28T04:41:47;7.30;;;3.20;;
26484;SDS011;18083;50.560;7.262;2023-02-28T04:44:15;4.60;;;3.37;;
26484;SDS011;18083;50.560;7.262;2023-02-28T04:46:42;11.47;;;4.43;;
26484;SDS011;18083;50.560;7.262;2023-02-28T04:49:10;7.00;;;3.50;;
26484;SDS011;18083;50.560;7.262;2023-02-28T04:51:38;12.23;;;5.17;;
26484;SDS011;18083;50.560;7.262;2023-02-28T04:54:05;7.37;;;3.37;;
26484;SDS011;18083;50.560;7.262;2023-02-28T04:56:33;10.53;;;4.63;;
26484;SDS011;18083;50.560;7.262;2023-02-28T04:59:00;9.40;;;4.70;;
26484;SDS011;18083;50.560;7.262;2023-02-28T05:01:33;12.50;;;5.73;;
26484;SDS011;18083;50.560;7.262;2023-02-28T05:03:57;14.97;;;7.10;;
26484;SDS011;18083;50.560;7.262;2023-02-28T05:06:26;13.50;;;7.10;;
26484;SDS011;18083;50.560;7.262;2023-02-28T05:08:54;15.63;;;7.37;;
26484;SDS011;18083;50.560;7.262;2023-02-28T05:11:25;19.37;;;8.33;;
26484;SDS011;18083;50.560;7.262;2023-02-28T05:13:53;10.70;;;6.03;;
26484;SDS011;18083;50.560;7.262;2023-02-28T05:16:20;6.70;;;3.53;;
26484;SDS011;18083;50.560;7.262;2023-02-28T05:18:48;8.07;;;3.50;;
26484;SDS011;18083;50.560;7.262;2023-02-28T05:21:26;6.87;;;3.33;;
26484;SDS011;18083;50.560;7.262;2023-02-28T05:23:53;5.97;;;3.10;;
26484;SDS011;18083;50.560;7.262;2023-02-28T05:26:21;4.47;;;3.60;;
26484;SDS011;18083;50.560;7.262;2023-02-28T05:28:49;6.97;;;3.33;;
26484;SDS011;18083;50.560;7.262;2023-02-28T05:31:16;6.80;;;3.17;;
26484;SDS011;18083;50.560;7.262;2023-02-28T05:33:43;4.97;;;3.50;;
26484;SDS011;18083;50.560;7.262;2023-02-28T05:36:11;4.63;;;3.03;;
26484;SDS011;18083;50.560;7.262;2023-02-28T05:38:38;4.87;;;3.37;;
26484;SDS011;18083;50.560;7.262;2023-02-28T05:41:09;4.73;;;2.77;;
26484;SDS011;18083;50.560;7.262;2023-02-28T05:43:36;5.10;;;2.90;;
26484;SDS011;18083;50.560;7.262;2023-02-28T05:46:05;4.27;;;3.27;;
26484;SDS011;18083;50.560;7.262;2023-02-28T05:48:35;5.17;;;3.60;;
26484;SDS011;18083;50.560;7.262;2023-02-28T05:51:04;5.67;;;3.57;;
26484;SDS011;18083;50.560;7.262;2023-02-28T05:53:31;5.07;;;3.10;;
26484;SDS011;18083;50.560;7.262;2023-02-28T05:55:59;5.67;;;3.67;;
26484;SDS011;18083;50.560;7.262;2023-02-28T05:58:26;4.87;;;3.10;;
26484;SDS011;18083;50.560;7.262;2023-02-28T06:00:56;6.13;;;3.30;;
26484;SDS011;18083;50.560;7.262;2023-02-28T06:03:24;6.43;;;3.47;;
26484;SDS011;18083;50.560;7.262;2023-02-28T06:05:51;4.17;;;3.07;;
26484;SDS011;18083;50.560;7.262;2023-02-28T06:08:18;3.50;;;3.17;;
26484;SDS011;18083;50.560;7.262;2023-02-28T06:10:46;5.10;;;3.20;;
26484;SDS011;18083;50.560;7.262;2023-02-28T06:13:13;5.43;;;3.63;;
26484;SDS011;18083;50.560;7.262;2023-02-28T06:15:41;4.10;;;2.87;;
26484;SDS011;18083;50.560;7.262;2023-02-28T06:18:08;4.60;;;3.77;;
26484;SDS011;18083;50.560;7.262;2023-02-28T06:20:36;6.87;;;3.20;;
26484;SDS011;18083;50.560;7.262;2023-02-28T06:23:03;10.43;;;3.10;;
26484;SDS011;18083;50.560;7.262;2023-02-28T06:25:30;5.43;;;3.93;;
26484;SDS011;18083;50.560;7.262;2023-02-28T06:27:58;9.80;;;5.93;;
26484;SDS011;18083;50.560;7.262;2023-02-28T06:30:25;8.93;;;5.07;;
26484;SDS011;18083;50.560;7.262;2023-02-28T06:32:54;9.40;;;3.80;;
26484;SDS011;18083;50.560;7.262;2023-02-28T06:35:21;9.47;;;5.43;;
26484;SDS011;18083;50.560;7.262;2023-02-28T06:37:49;3.60;;;3.30;;
26484;SDS011;18083;50.560;7.262;2023-02-28T06:40:16;5.10;;;3.77;;
26484;SDS011;18083;50.560;7.262;2023-02-28T06:42:43;4.37;;;3.40;;
26484;SDS011;18083;50.560;7.262;2023-02-28T06:45:11;5.33;;;3.77;;
26484;SDS011;18083;50.560;7.262;2023-02-28T06:47:39;5.57;;;3.43;;
26484;SDS011;18083;50.560;7.262;2023-02-28T06:50:07;4.93;;;4.00;;
26484;SDS011;18083;50.560;7.262;2023-02-28T06:52:35;7.17;;;4.00;;
26484;SDS011;18083;50.560;7.262;2023-02-28T06:55:04;7.83;;;5.23;;
26484;SDS011;18083;50.560;7.262;2023-02-28T06:57:32;9.90;;;7.07;;
26484;SDS011;18083;50.560;7.262;2023-02-28T07:00:00;12.37;;;8.53;;
26484;SDS011;18083;50.560;7.262;2023-02-28T07:02:29;77.27;;;33.70;;
26484;SDS011;18083;50.560;7.262;2023-02-28T07:04:56;83.73;;;44.37;;
26484;SDS011;18083;50.560;7.262;2023-02-28T07:07:24;129.73;;;60.70;;
26484;SDS011;18083;50.560;7.262;2023-02-28T07:09:51;40.80;;;25.50;;
26484;SDS011;18083;50.560;7.262;2023-02-28T07:12:18;36.47;;;23.63;;
26484;SDS011;18083;50.560;7.262;2023-02-28T07:14:46;41.80;;;31.73;;
26484;SDS011;18083;50.560;7.262;2023-02-28T07:17:13;23.30;;;17.83;;
26484;SDS011;18083;50.560;7.262;2023-02-28T07:19:40;23.27;;;13.07;;
26484;SDS011;18083;50.560;7.262;2023-02-28T07:22:08;18.73;;;11.00;;
26484;SDS011;18083;50.560;7.262;2023-02-28T07:24:35;7.43;;;5.93;;
26484;SDS011;18083;50.560;7.262;2023-02-28T07:27:02;13.70;;;7.40;;
26484;SDS011;18083;50.560;7.262;2023-02-28T07:29:30;8.73;;;5.70;;
26484;SDS011;18083;50.560;7.262;2023-02-28T07:31:57;8.50;;;6.20;;
26484;SDS011;18083;50.560;7.262;2023-02-28T07:34:24;6.03;;;4.67;;
26484;SDS011;18083;50.560;7.262;2023-02-28T07:36:52;8.93;;;4.93;;
26484;SDS011;18083;50.560;7.262;2023-02-28T07:39:20;13.87;;;5.63;;
26484;SDS011;18083;50.560;7.262;2023-02-28T07:41:47;10.03;;;5.20;;
26484;SDS011;18083;50.560;7.262;2023-02-28T07:44:15;11.43;;;5.50;;
26484;SDS011;18083;50.560;7.262;2023-02-28T07:46:42;6.77;;;3.73;;
26484;SDS011;18083;50.560;7.262;2023-02-28T07:49:10;6.57;;;3.67;;
26484;SDS011;18083;50.560;7.262;2023-02-28T07:51:37;5.90;;;4.30;;
26484;SDS011;18083;50.560;7.262;2023-02-28T07:54:04;6.13;;;4.03;;
26484;SDS011;18083;50.560;7.262;2023-02-28T07:56:32;5.80;;;3.40;;
26484;SDS011;18083;50.560;7.262;2023-02-28T07:58:59;4.50;;;3.67;;
26484;SDS011;18083;50.560;7.262;2023-02-28T08:01:27;3.77;;;3.20;;
26484;SDS011;18083;50.560;7.262;2023-02-28T08:03:55;4.57;;;3.47;;
26484;SDS011;18083;50.560;7.262;2023-02-28T08:06:23;6.10;;;4.40;;
26484;SDS011;18083;50.560;7.262;2023-02-28T08:08:51;5.07;;;4.07;;
26484;SDS011;18083;50.560;7.262;2023-02-28T08:11:18;5.80;;;3.63;;
26484;SDS011;18083;50.560;7.262;2023-02-28T08:13:46;6.83;;;3.43;;
26484;SDS011;18083;50.560;7.262;2023-02-28T08:16:13;4.17;;;2.90;;
26484;SDS011;18083;50.560;7.262;2023-02-28T08:18:43;4.43;;;3.47;;
26484;SDS011;18083;50.560;7.262;2023-02-28T08:21:11;5.80;;;2.97;;
26484;SDS011;18083;50.560;7.262;2023-02-28T08:23:38;5.30;;;3.43;;
26484;SDS011;18083;50.560;7.262;2023-02-28T08:26:05;4.50;;;3.23;;
26484;SDS011;18083;50.560;7.262;2023-02-28T08:28:34;5.90;;;2.53;;
26484;SDS011;18083;50.560;7.262;2023-02-28T08:31:08;3.00;;;1.93;;
26484;SDS011;18083;50.560;7.262;2023-02-28T08:33:36;3.80;;;2.93;;
26484;SDS011;18083;50.560;7.262;2023-02-28T08:36:05;5.67;;;3.13;;
26484;SDS011;18083;50.560;7.262;2023-02-28T08:38:33;3.23;;;2.63;;
26484;SDS011;18083;50.560;7.262;2023-02-28T08:41:02;3.43;;;2.90;;
26484;SDS011;18083;50.560;7.262;2023-02-28T08:43:29;3.63;;;2.70;;
26484;SDS011;18083;50.560;7.262;2023-02-28T08:45:57;2.53;;;2.30;;
26484;SDS011;18083;50.560;7.262;2023-02-28T08:48:29;9.70;;;3.73;;
26484;SDS011;18083;50.560;7.262;2023-02-28T08:50:59;6.90;;;3.00;;
26484;SDS011;18083;50.560;7.262;2023-02-28T08:53:27;3.70;;;2.97;;
26484;SDS011;18083;50.560;7.262;2023-02-28T08:56:02;4.73;;;3.17;;
26484;SDS011;18083;50.560;7.262;2023-02-28T08:58:29;3.20;;;2.90;;
26484;SDS011;18083;50.560;7.262;2023-02-28T09:00:57;2.60;;;2.33;;
26484;SDS011;18083;50.560;7.262;2023-02-28T09:03:24;4.73;;;2.97;;
26484;SDS011;18083;50.560;7.262;2023-02-28T09:05:56;3.23;;;2.63;;
26484;SDS011;18083;50.560;7.262;2023-02-28T09:08:24;4.43;;;2.60;;
26484;SDS011;18083;50.560;7.262;2023-02-28T09:10:52;5.53;;;2.93;;
26484;SDS011;18083;50.560;7.262;2023-02-28T09:13:20;5.20;;;2.97;;
26484;SDS011;18083;50.560;7.262;2023-02-28T09:15:48;2.80;;;2.23;;
26484;SDS011;18083;50.560;7.262;2023-02-28T09:18:15;3.47;;;2.57;;
26484;SDS011;18083;50.560;7.262;2023-02-28T09:20:43;4.50;;;2.20;;
26484;SDS011;18083;50.560;7.262;2023-02-28T09:23:11;5.10;;;2.97;;
26484;SDS011;18083;50.560;7.262;2023-02-28T09:25:44;3.93;;;2.30;;
26484;SDS011;18083;50.560;7.262;2023-02-28T09:28:07;4.50;;;2.30;;
26484;SDS011;18083;50.560;7.262;2023-02-28T09:30:35;3.97;;;2.30;;
26484;SDS011;18083;50.560;7.262;2023-02-28T09:33:02;4.37;;;2.73;;
26484;SDS011;18083;50.560;7.262;2023-02-28T09:35:29;6.27;;;3.50;;
26484;SDS011;18083;50.560;7.262;2023-02-28T09:37:57;5.03;;;3.00;;
26484;SDS011;18083;50.560;7.262;2023-02-28T09:40:24;4.73;;;3.40;;
26484;SDS011;18083;50.560;7.262;2023-02-28T09:42:53;3.20;;;2.77;;
26484;SDS011;18083;50.560;7.262;2023-02-28T09:45:26;3.57;;;2.70;;
26484;SDS011;18083;50.560;7.262;2023-02-28T09:47:54;5.33;;;3.73;;
26484;SDS011;18083;50.560;7.262;2023-02-28T09:50:40;3.20;;;2.43;;
26484;SDS011;18083;50.560;7.262;2023-02-28T09:53:04;3.70;;;2.80;;
26484;SDS011;18083;50.560;7.262;2023-02-28T09:55:33;5.40;;;3.00;;
26484;SDS011;18083;50.560;7.262;2023-02-28T09:58:00;5.07;;;2.50;;
26484;SDS011;18083;50.560;7.262;2023-02-28T10:00:35;4.53;;;3.90;;
26484;SDS011;18083;50.560;7.262;2023-02-28T10:08:18;3.87;;;3.07;;
26484;SDS011;18083;50.560;7.262;2023-02-28T10:10:47;6.83;;;3.53;;
26484;SDS011;18083;50.560;7.262;2023-02-28T10:13:17;14.10;;;5.43;;
26484;SDS011;18083;50.560;7.262;2023-02-28T10:15:45;4.83;;;3.93;;
26484;SDS011;18083;50.560;7.262;2023-02-28T10:18:14;6.20;;;2.77;;
26484;SDS011;18083;50.560;7.262;2023-02-28T10:20:42;2.33;;;2.10;;
26484;SDS011;18083;50.560;7.262;2023-02-28T10:25:38;4.77;;;1.90;;
26484;SDS011;18083;50.560;7.262;2023-02-28T10:28:10;3.50;;;2.83;;
26484;SDS011;18083;50.560;7.262;2023-02-28T10:30:39;3.63;;;2.27;;
26484;SDS011;18083;50.560;7.262;2023-02-28T10:33:08;3.67;;;2.30;;
26484;SDS011;18083;50.560;7.262;2023-02-28T10:35:35;2.77;;;2.47;;
26484;SDS011;18083;50.560;7.262;2023-02-28T10:38:08;3.47;;;2.50;;
26484;SDS011;18083;50.560;7.262;2023-02-28T10:40:34;6.70;;;2.83;;
26484;SDS011;18083;50.560;7.262;2023-02-28T10:43:02;3.53;;;2.63;;
26484;SDS011;18083;50.560;7.262;2023-02-28T10:48:30;2.97;;;2.03;;
26484;SDS011;18083;50.560;7.262;2023-02-28T10:50:58;2.53;;;2.33;;
26484;SDS011;18083;50.560;7.262;2023-02-28T10:53:33;2.50;;;2.30;;
26484;SDS011;18083;50.560;7.262;2023-02-28T11:01:45;2.97;;;2.20;;
26484;SDS011;18083;50.560;7.262;2023-02-28T11:13:16;3.00;;;2.37;;
26484;SDS011;18083;50.560;7.262;2023-02-28T11:16:17;2.57;;;2.37;;
26484;SDS011;18083;50.560;7.262;2023-02-28T11:22:20;4.07;;;2.27;;
26484;SDS011;18083;50.560;7.262;2023-02-28T12:27:21;3.87;;;2.67;;
26484;SDS011;18083;50.560;7.262;2023-02-28T12:30:21;3.60;;;3.07;;
26484;SDS011;18083;50.560;7.262;2023-02-28T12:41:39;5.97;;;2.90;;
26484;SDS011;18083;50.560;7.262;2023-02-28T12:44:12;3.07;;;2.77;;
26484;SDS011;18083;50.560;7.262;2023-02-28T12:46:42;3.30;;;2.87;;
26484;SDS011;18083;50.560;7.262;2023-02-28T13:01:24;3.43;;;2.30;;
26484;SDS011;18083;50.560;7.262;2023-02-28T13:03:58;2.53;;;2.33;;
26484;SDS011;18083;50.560;7.262;2023-02-28T13:11:38;3.60;;;2.85;;
26484;SDS011;18083;50.560;7.262;2023-02-28T13:14:02;5.53;;;2.60;;
26484;SDS011;18083;50.560;7.262;2023-02-28T13:16:50;3.23;;;2.93;;
26484;SDS011;18083;50.560;7.262;2023-02-28T13:19:17;5.23;;;2.60;;
26484;SDS011;18083;50.560;7.262;2023-02-28T13:21:46;4.40;;;3.30;;
26484;SDS011;18083;50.560;7.262;2023-02-28T13:24:36;5.73;;;3.03;;
26484;SDS011;18083;50.560;7.262;2023-02-28T13:34:42;3.50;;;2.77;;
26484;SDS011;18083;50.560;7.262;2023-02-28T13:39:58;3.73;;;3.07;;
26484;SDS011;18083;50.560;7.262;2023-02-28T13:42:33;3.63;;;2.93;;
26484;SDS011;18083;50.560;7.262;2023-02-28T13:47:36;3.30;;;2.57;;
26484;SDS011;18083;50.560;7.262;2023-02-28T13:50:20;3.07;;;2.77;;
26484;SDS011;18083;50.560;7.262;2023-02-28T13:55:24;4.70;;;2.40;;
26484;SDS011;18083;50.560;7.262;2023-02-28T14:00:40;3.80;;;2.83;;
26484;SDS011;18083;50.560;7.262;2023-02-28T14:05:33;3.30;;;2.72;;
26484;SDS011;18083;50.560;7.262;2023-02-28T14:08:05;5.78;;;3.05;;
26484;SDS011;18083;50.560;7.262;2023-02-28T14:10:39;4.00;;;2.90;;
26484;SDS011;18083;50.560;7.262;2023-02-28T14:15:55;3.10;;;2.70;;
26484;SDS011;18083;50.560;7.262;2023-02-28T14:18:25;3.15;;;2.90;;
26484;SDS011;18083;50.560;7.262;2023-02-28T14:20:54;4.75;;;2.58;;
26484;SDS011;18083;50.560;7.262;2023-02-28T14:26:18;4.17;;;2.52;;
26484;SDS011;18083;50.560;7.262;2023-02-28T14:31:29;4.00;;;3.12;;
26484;SDS011;18083;50.560;7.262;2023-02-28T14:34:17;2.70;;;2.45;;
26484;SDS011;18083;50.560;7.262;2023-02-28T14:36:37;4.25;;;3.02;;
26484;SDS011;18083;50.560;7.262;2023-02-28T14:39:06;4.87;;;3.37;;
26484;SDS011;18083;50.560;7.262;2023-02-28T14:41:37;5.65;;;3.37;;
26484;SDS011;18083;50.560;7.262;2023-02-28T14:44:24;3.92;;;3.35;;
26484;SDS011;18083;50.560;7.262;2023-02-28T14:46:55;3.55;;;2.92;;
26484;SDS011;18083;50.560;7.262;2023-02-28T14:49:30;5.37;;;3.58;;
26484;SDS011;18083;50.560;7.262;2023-02-28T14:54:43;4.28;;;3.75;;
26484;SDS011;18083;50.560;7.262;2023-02-28T14:57:30;5.35;;;3.62;;
26484;SDS011;18083;50.560;7.262;2023-02-28T15:00:02;4.10;;;3.70;;
26484;SDS011;18083;50.560;7.262;2023-02-28T15:02:31;5.43;;;3.23;;
26484;SDS011;18083;50.560;7.262;2023-02-28T15:05:47;9.37;;;3.77;;
26484;SDS011;18083;50.560;7.262;2023-02-28T15:07:28;5.17;;;4.10;;
26484;SDS011;18083;50.560;7.262;2023-02-28T15:12:41;4.80;;;3.13;;
26484;SDS011;18083;50.560;7.262;2023-02-28T15:15:15;4.57;;;3.77;;
26484;SDS011;18083;50.560;7.262;2023-02-28T15:17:44;5.13;;;3.40;;
26484;SDS011;18083;50.560;7.262;2023-02-28T15:20:12;6.40;;;4.60;;
26484;SDS011;18083;50.560;7.262;2023-02-28T15:22:40;6.17;;;3.70;;
26484;SDS011;18083;50.560;7.262;2023-02-28T15:25:09;4.17;;;3.73;;
26484;SDS011;18083;50.560;7.262;2023-02-28T15:27:38;6.43;;;3.67;;
26484;SDS011;18083;50.560;7.262;2023-02-28T15:30:06;5.23;;;4.17;;
26484;SDS011;18083;50.560;7.262;2023-02-28T15:32:36;5.33;;;4.00;;
26484;SDS011;18083;50.560;7.262;2023-02-28T15:37:55;7.97;;;4.27;;
26484;SDS011;18083;50.560;7.262;2023-02-28T15:40:26;5.57;;;3.93;;
26484;SDS011;18083;50.560;7.262;2023-02-28T15:45:44;4.87;;;4.00;;
26484;SDS011;18083;50.560;7.262;2023-02-28T15:48:27;5.67;;;4.13;;
26484;SDS011;18083;50.560;7.262;2023-02-28T15:51:13;5.27;;;4.10;;
26484;SDS011;18083;50.560;7.262;2023-02-28T15:53:43;4.30;;;3.40;;
26484;SDS011;18083;50.560;7.262;2023-02-28T15:56:17;4.70;;;4.23;;
26484;SDS011;18083;50.560;7.262;2023-02-28T15:58:38;5.03;;;3.70;;
26484;SDS011;18083;50.560;7.262;2023-02-28T16:01:07;6.80;;;4.67;;
26484;SDS011;18083;50.560;7.262;2023-02-28T16:03:39;6.80;;;4.10;;
26484;SDS011;18083;50.560;7.262;2023-02-28T16:08:38;9.43;;;4.37;;
26484;SDS011;18083;50.560;7.262;2023-02-28T16:11:07;6.97;;;4.40;;
26484;SDS011;18083;50.560;7.262;2023-02-28T16:13:34;6.17;;;4.20;;
26484;SDS011;18083;50.560;7.262;2023-02-28T16:16:02;6.57;;;4.77;;
26484;SDS011;18083;50.560;7.262;2023-02-28T16:18:29;5.07;;;4.30;;
26484;SDS011;18083;50.560;7.262;2023-02-28T16:20:56;5.03;;;3.73;;
26484;SDS011;18083;50.560;7.262;2023-02-28T16:23:24;5.93;;;4.00;;
26484;SDS011;18083;50.560;7.262;2023-02-28T16:25:51;8.73;;;4.87;;
26484;SDS011;18083;50.560;7.262;2023-02-28T16:28:26;8.20;;;4.50;;
26484;SDS011;18083;50.560;7.262;2023-02-28T16:30:55;9.30;;;4.53;;
26484;SDS011;18083;50.560;7.262;2023-02-28T16:33:23;5.20;;;3.30;;
26484;SDS011;18083;50.560;7.262;2023-02-28T16:35:50;7.93;;;4.60;;
26484;SDS011;18083;50.560;7.262;2023-02-28T16:38:17;6.17;;;4.20;;
26484;SDS011;18083;50.560;7.262;2023-02-28T16:40:45;8.43;;;4.70;;
26484;SDS011;18083;50.560;7.262;2023-02-28T16:43:19;6.80;;;4.17;;
26484;SDS011;18083;50.560;7.262;2023-02-28T16:45:47;9.63;;;4.10;;
26484;SDS011;18083;50.560;7.262;2023-02-28T16:48:15;6.10;;;3.87;;
26484;SDS011;18083;50.560;7.262;2023-02-28T16:50:43;4.27;;;3.73;;
26484;SDS011;18083;50.560;7.262;2023-02-28T16:53:10;5.70;;;4.27;;
26484;SDS011;18083;50.560;7.262;2023-02-28T16:55:38;5.83;;;4.43;;
26484;SDS011;18083;50.560;7.262;2023-02-28T16:58:05;4.50;;;4.10;;
26484;SDS011;18083;50.560;7.262;2023-02-28T17:00:32;13.53;;;7.70;;
26484;SDS011;18083;50.560;7.262;2023-02-28T17:03:00;11.67;;;6.37;;
26484;SDS011;18083;50.560;7.262;2023-02-28T17:05:29;7.50;;;4.47;;
26484;SDS011;18083;50.560;7.262;2023-02-28T17:07:57;6.93;;;4.30;;
26484;SDS011;18083;50.560;7.262;2023-02-28T17:10:25;4.10;;;3.57;;
26484;SDS011;18083;50.560;7.262;2023-02-28T17:12:53;10.43;;;5.30;;
26484;SDS011;18083;50.560;7.262;2023-02-28T17:15:20;8.67;;;5.47;;
26484;SDS011;18083;50.560;7.262;2023-02-28T17:17:47;9.17;;;5.77;;
26484;SDS011;18083;50.560;7.262;2023-02-28T17:20:16;9.87;;;5.87;;
26484;SDS011;18083;50.560;7.262;2023-02-28T17:22:44;7.57;;;5.93;;
26484;SDS011;18083;50.560;7.262;2023-02-28T17:25:11;6.83;;;5.00;;
26484;SDS011;18083;50.560;7.262;2023-02-28T17:27:41;10.13;;;5.10;;
26484;SDS011;18083;50.560;7.262;2023-02-28T17:30:13;7.27;;;5.27;;
26484;SDS011;18083;50.560;7.262;2023-02-28T17:32:38;7.80;;;5.73;;
26484;SDS011;18083;50.560;7.262;2023-02-28T17:35:05;10.73;;;7.20;;
26484;SDS011;18083;50.560;7.262;2023-02-28T17:37:33;11.63;;;7.33;;
26484;SDS011;18083;50.560;7.262;2023-02-28T17:40:00;12.43;;;8.80;;
26484;SDS011;18083;50.560;7.262;2023-02-28T17:42:28;9.13;;;6.37;;
26484;SDS011;18083;50.560;7.262;2023-02-28T17:44:55;11.43;;;7.30;;
26484;SDS011;18083;50.560;7.262;2023-02-28T17:47:22;17.37;;;8.83;;
26484;SDS011;18083;50.560;7.262;2023-02-28T17:49:50;12.27;;;7.27;;
26484;SDS011;18083;50.560;7.262;2023-02-28T17:52:17;10.93;;;7.23;;
26484;SDS011;18083;50.560;7.262;2023-02-28T17:54:44;15.90;;;8.17;;